Hlavní strana
METAR-TAF:

METAR-TAF

Letiště :

Tiaret, Alžírsko

zeměpisná šířka: 35-15N, zeměpisná délka: 001-26E, výška: 1127 m

Aktuální stav počasí

Zpráva byla vytvořena před 46 minutami, v 00:00 UTC
Východní vítr 9 kt
Teplota 25°C
Vlhkost vzduchu 22%
Tlak 1020 hPa
Viditelnost 10 km a více
Žádná oblačnost pod 1500 m, nevyskytují se cumulonimby.

METAR: DAOB 090000Z 09009KT CAVOK 25/02 Q1020

Čas: 01:46 (00:46 UTC)

Předpověď počasí

Zpráva byla vytvořena před 1 hodinou a 46 minutami, v 23:00 UTC
Předpověď platná od 09 v 00 UTC do 09 v 24 UTC
Východní vítr 8 kt
Viditelnost 10 km a více
Žádná oblačnost pod 1500 m, nevyskytují se cumulonimby.
Pravděpodobnost 30% :
Dočasný
od 09 v 00 UTC do 09 v 06 UTC
Skoro jasno ve výšce 2600 ft, Vertikální cumulus.
Změna
od 09 v 09 UTC do 09 v 12 UTC
Jižní vítr 12 kt
Změna
od 09 v 17 UTC do 09 v 20 UTC
vítr z různých směrů 2 kt

TAF: DAOB 082300Z 0900/0924 10008KT CAVOK PROB30 TEMPO 0900/0906 FEW026TCU BECMG 0909/0912 18012KT BECMG 0917/0920 VRB02KT

Stav a předpovědi počasí z více než 4 000 letišť (zprávy METAR a TAF).

Červené a žluté tečky na mapě představují dostupné meteorologické stanice.

Když kurzor umístíte na tečku, zobrazí se název stanice.

Pak kliknutím zobrazíte stav a předpověď počasí.

Chcete-li změnit mapu, kliknutím na zelené tlačítko se znaménkem +mapu přiblížíte, kliknutím na zelené tlačítko se znaménkem – mapu oddálíte a kliknutím na zelené šipky přejdete na sousední mapy.


METAR-TAF: